createdAt,value
2022-10-26T00:03:59.779Z,13.18
2022-10-26T00:08:14.867Z,12.57
2022-10-26T00:12:29.037Z,12.50
2022-10-26T00:16:42.844Z,15.07
2022-10-26T00:20:56.557Z,16.13
2022-10-26T00:25:11.897Z,11.87
2022-10-26T00:29:25.579Z,13.73
2022-10-26T00:33:39.326Z,14.55
2022-10-26T00:37:55.887Z,11.68
2022-10-26T00:42:14.158Z,13.53
2022-10-26T00:46:31.368Z,14.45
2022-10-26T00:50:48.252Z,13.35
2022-10-26T00:55:02.527Z,11.80
2022-10-26T00:59:19.142Z,13.85
2022-10-26T01:03:34.050Z,11.85
2022-10-26T01:07:49.500Z,14.97
2022-10-26T01:12:03.347Z,18.63
2022-10-26T01:16:42.882Z,15.98
2022-10-26T01:21:29.259Z,11.57
2022-10-26T01:26:01.429Z,11.93
2022-10-26T01:30:28.020Z,13.30
2022-10-26T01:34:46.188Z,15.90
2022-10-26T01:39:38.856Z,14.83
2022-10-26T01:43:57.306Z,13.48
2022-10-26T01:48:15.361Z,16.73
2022-10-26T01:52:29.482Z,18.40
2022-10-26T01:56:46.111Z,13.82
2022-10-26T02:01:05.808Z,14.48
2022-10-26T02:05:36.339Z,18.10
2022-10-26T02:10:01.022Z,11.97
2022-10-26T02:14:21.809Z,18.13
2022-10-26T02:18:40.454Z,15.18
2022-10-26T02:22:57.654Z,13.37
2022-10-26T02:27:26.073Z,12.32
2022-10-26T02:31:42.363Z,14.55
2022-10-26T02:35:58.128Z,15.27
2022-10-26T02:40:20.938Z,13.48
2022-10-26T02:44:42.652Z,12.60
2022-10-26T02:48:57.284Z,15.82
2022-10-26T02:53:18.011Z,12.33
2022-10-26T02:57:39.733Z,12.27
2022-10-26T03:01:54.670Z,12.80
2022-10-26T03:06:08.480Z,10.67
2022-10-26T03:10:22.887Z,14.65
2022-10-26T03:14:37.965Z,13.52
2022-10-26T03:18:51.647Z,13.10
2022-10-26T03:23:05.311Z,13.05
2022-10-26T03:27:19.132Z,14.07
2022-10-26T03:31:34.142Z,14.55
2022-10-26T03:35:47.823Z,14.60
2022-10-26T03:40:01.608Z,17.73
2022-10-26T03:44:15.386Z,15.35
2022-10-26T03:48:30.438Z,13.30
2022-10-26T03:52:44.231Z,15.95
2022-10-26T03:56:57.883Z,14.70
2022-10-26T04:01:11.623Z,15.50
2022-10-26T04:05:27.926Z,20.42
2022-10-26T04:09:41.527Z,16.83
2022-10-26T04:13:55.361Z,19.02
2022-10-26T04:18:12.922Z,15.03
2022-10-26T04:22:28.087Z,16.02
2022-10-26T04:26:41.919Z,21.17
2022-10-26T04:30:55.576Z,15.83
2022-10-26T04:35:13.225Z,16.73
2022-10-26T04:39:30.544Z,14.88
2022-10-26T04:43:44.282Z,14.70
2022-10-26T04:48:02.122Z,15.02
2022-10-26T04:52:15.719Z,17.58
2022-10-26T04:56:31.048Z,9.40
2022-10-26T05:00:44.746Z,10.83
2022-10-26T05:04:58.636Z,11.68
2022-10-26T05:09:12.398Z,9.25
2022-10-26T05:17:46.596Z,8.88
2022-10-26T05:22:00.754Z,11.80
2022-10-26T05:26:14.478Z,9.90
2022-10-26T05:30:30.647Z,9.82
2022-10-26T05:34:44.448Z,12.90
2022-10-26T05:38:59.346Z,12.20
2022-10-26T05:43:13.501Z,12.40
2022-10-26T05:47:29.429Z,14.82
2022-10-26T05:51:46.615Z,13.13
2022-10-26T05:56:00.793Z,14.63
2022-10-26T06:00:18.706Z,12.88
2022-10-26T06:04:38.825Z,12.20
2022-10-26T06:08:53.133Z,11.43
2022-10-26T06:13:07.308Z,11.60
2022-10-26T06:17:37.508Z,13.07
2022-10-26T06:22:03.852Z,12.27
2022-10-26T06:26:29.308Z,9.87
2022-10-26T06:30:43.799Z,11.10
2022-10-26T06:35:08.935Z,10.38
2022-10-26T06:39:26.880Z,10.50
2022-10-26T06:43:41.323Z,7.35
2022-10-26T06:48:01.736Z,9.80
2022-10-26T06:52:21.758Z,10.37
2022-10-26T06:56:37.811Z,9.40
2022-10-26T07:00:54.525Z,7.03
2022-10-26T07:05:12.832Z,12.68
2022-10-26T07:09:26.654Z,9.03
2022-10-26T07:13:41.667Z,10.82
2022-10-26T07:17:55.371Z,8.10
2022-10-26T07:22:09.144Z,8.77
2022-10-26T07:26:22.852Z,7.47
2022-10-26T07:30:38.926Z,11.57
2022-10-26T07:34:52.558Z,7.90
2022-10-26T07:39:06.409Z,7.00
2022-10-26T07:43:20.368Z,6.53
2022-10-26T07:47:35.427Z,7.07
2022-10-26T07:51:49.163Z,6.87
2022-10-26T07:56:02.808Z,6.18
2022-10-26T08:00:17.112Z,5.45
2022-10-26T08:04:32.248Z,5.47
2022-10-26T08:08:47.706Z,8.00
2022-10-26T08:13:01.512Z,6.10
2022-10-26T08:17:15.175Z,8.97
2022-10-26T08:21:40.315Z,8.18
2022-10-26T08:25:59.502Z,8.50
2022-10-26T08:30:14.049Z,7.30
2022-10-26T08:34:27.758Z,5.40
2022-10-26T08:38:42.832Z,7.03
2022-10-26T08:43:01.284Z,6.10
2022-10-26T08:47:21.818Z,7.23
2022-10-26T08:51:37.759Z,5.95
2022-10-26T08:55:57.518Z,8.68
2022-10-26T09:00:16.248Z,8.23
2022-10-26T09:04:32.311Z,9.00
2022-10-26T09:08:57.755Z,6.20
2022-10-26T09:13:24.694Z,9.45
2022-10-26T09:17:46.018Z,6.43
2022-10-26T09:22:07.615Z,6.07
2022-10-26T09:26:31.258Z,7.15
2022-10-26T09:30:48.658Z,7.77
2022-10-26T09:35:06.655Z,8.23
2022-10-26T09:39:25.820Z,6.00
2022-10-26T09:43:44.991Z,8.77
2022-10-26T09:48:06.740Z,10.00
2022-10-26T09:52:21.199Z,7.30
2022-10-26T09:56:38.467Z,8.68
2022-10-26T10:00:53.023Z,7.97
2022-10-26T10:05:39.113Z,7.22
2022-10-26T10:10:17.245Z,7.50
2022-10-26T10:14:36.159Z,8.90
2022-10-26T10:18:56.450Z,9.30
2022-10-26T10:23:29.364Z,8.45
2022-10-26T10:27:54.383Z,9.07
2022-10-26T10:32:16.516Z,10.35
2022-10-26T10:36:32.331Z,7.32
2022-10-26T10:40:53.678Z,7.55
2022-10-26T10:45:15.008Z,7.33
2022-10-26T10:49:31.114Z,7.80
2022-10-26T10:53:49.223Z,9.93
2022-10-26T10:58:16.284Z,10.00
2022-10-26T11:03:02.687Z,7.05
2022-10-26T11:07:18.708Z,7.78
2022-10-26T11:11:36.248Z,5.90
2022-10-26T11:15:57.551Z,6.15
2022-10-26T11:20:15.078Z,7.93
2022-10-26T11:24:35.293Z,7.57
2022-10-26T11:28:54.667Z,9.53
2022-10-26T11:33:14.894Z,8.60
2022-10-26T11:37:37.609Z,7.32
2022-10-26T11:41:57.213Z,7.13
2022-10-26T11:46:16.716Z,8.35
2022-10-26T11:50:40.023Z,5.25
2022-10-26T11:54:56.672Z,6.33
2022-10-26T11:59:19.262Z,5.90
2022-10-26T12:03:35.465Z,7.45
2022-10-26T12:07:53.747Z,5.28
2022-10-26T12:12:14.482Z,5.70
2022-10-26T12:16:41.448Z,8.13
2022-10-26T12:21:02.587Z,5.15
2022-10-26T12:25:23.809Z,7.00
2022-10-26T12:30:16.393Z,6.95
2022-10-26T12:35:04.131Z,6.18
2022-10-26T12:39:32.450Z,6.00
2022-10-26T12:43:48.260Z,9.75
2022-10-26T12:48:10.776Z,5.70
2022-10-26T12:52:44.839Z,6.47
2022-10-26T12:57:08.054Z,6.33
2022-10-26T13:01:58.497Z,7.70
2022-10-26T13:06:36.519Z,6.38
2022-10-26T13:11:04.539Z,6.60
2022-10-26T13:15:24.421Z,6.57
2022-10-26T13:19:45.572Z,6.65
2022-10-26T13:24:05.312Z,6.13
2022-10-26T13:28:34.958Z,5.63
2022-10-26T13:32:54.311Z,6.90
2022-10-26T13:37:18.422Z,7.15
2022-10-26T13:41:35.207Z,7.67
2022-10-26T13:45:55.015Z,7.47
2022-10-26T13:50:13.343Z,6.07
2022-10-26T13:54:35.405Z,6.13
2022-10-26T13:58:53.343Z,6.30
2022-10-26T14:03:15.089Z,7.90
2022-10-26T14:07:37.642Z,6.70
2022-10-26T14:11:55.187Z,7.53
2022-10-26T14:16:12.881Z,6.28
2022-10-26T14:20:32.074Z,8.45
2022-10-26T14:24:52.926Z,8.03
2022-10-26T14:29:17.935Z,5.88
2022-10-26T14:33:31.606Z,8.68
2022-10-26T14:37:52.009Z,10.23
2022-10-26T14:42:13.729Z,8.18
2022-10-26T14:46:34.599Z,7.78
2022-10-26T14:51:07.652Z,7.20
2022-10-26T14:55:21.451Z,9.75
2022-10-26T14:59:35.330Z,7.85
2022-10-26T15:03:53.445Z,9.95
2022-10-26T15:09:03.378Z,7.30
2022-10-26T15:13:25.031Z,7.65
2022-10-26T15:17:42.499Z,8.05
2022-10-26T15:21:57.860Z,9.83
2022-10-26T15:26:13.114Z,6.82
2022-10-26T15:30:28.318Z,7.60
2022-10-26T15:34:41.966Z,7.70
2022-10-26T15:38:56.996Z,7.30
2022-10-26T15:43:12.856Z,10.85
2022-10-26T15:47:31.705Z,8.70
2022-10-26T15:51:46.959Z,7.20
2022-10-26T15:56:02.143Z,7.38
2022-10-26T16:00:18.561Z,7.78
2022-10-26T16:04:32.470Z,10.47
2022-10-26T16:08:50.468Z,6.95
2022-10-26T16:13:06.189Z,8.82
2022-10-26T16:17:19.975Z,10.30
2022-10-26T16:21:42.243Z,8.80
2022-10-26T16:25:56.015Z,9.32
2022-10-26T16:30:12.907Z,11.57
2022-10-26T16:34:26.547Z,9.33
2022-10-26T16:38:40.406Z,12.63
2022-10-26T16:42:54.059Z,10.00
2022-10-26T16:47:09.438Z,8.53
2022-10-26T16:51:24.868Z,8.93
2022-10-26T16:55:38.620Z,12.63
2022-10-26T16:59:52.402Z,17.67
2022-10-26T17:04:07.595Z,11.70
2022-10-26T17:08:21.288Z,13.05
2022-10-26T17:12:34.951Z,12.48
2022-10-26T17:16:48.687Z,12.03
2022-10-26T17:21:04.101Z,12.57
2022-10-26T17:25:17.909Z,15.88
2022-10-26T17:29:31.666Z,16.13
2022-10-26T17:33:50.196Z,15.32
2022-10-26T17:38:05.712Z,16.70
2022-10-26T17:42:19.391Z,18.60
2022-10-26T17:46:34.016Z,15.35
2022-10-26T17:50:47.661Z,16.42
2022-10-26T17:55:03.102Z,16.52
2022-10-26T17:59:19.089Z,17.57
2022-10-26T18:03:32.943Z,14.73
2022-10-26T18:07:47.357Z,14.40
2022-10-26T18:12:03.230Z,16.40
2022-10-26T18:16:18.887Z,15.77
2022-10-26T18:20:32.727Z,14.35
2022-10-26T18:24:46.730Z,15.97
2022-10-26T18:29:03.428Z,15.30
2022-10-26T18:33:19.964Z,12.85
2022-10-26T18:37:33.690Z,14.80
2022-10-26T18:41:47.340Z,12.17
2022-10-26T18:46:07.283Z,14.25
2022-10-26T18:50:21.023Z,13.88
2022-10-26T18:54:34.703Z,16.63
2022-10-26T18:58:50.521Z,13.95
2022-10-26T19:03:06.525Z,13.82
2022-10-26T19:07:20.415Z,10.90
2022-10-26T19:11:34.620Z,13.50
2022-10-26T19:15:48.359Z,13.18
2022-10-26T19:20:03.397Z,13.63
2022-10-26T19:24:19.247Z,12.10
2022-10-26T19:28:33.314Z,11.07
2022-10-26T19:32:47.069Z,13.07
2022-10-26T19:37:02.156Z,13.27
2022-10-26T19:41:17.306Z,18.20
2022-10-26T19:45:31.330Z,15.73
2022-10-26T19:49:45.102Z,10.80
2022-10-26T19:54:03.831Z,12.80
2022-10-26T19:58:18.361Z,13.75
2022-10-26T20:02:32.012Z,16.52
2022-10-26T20:06:45.664Z,13.60
2022-10-26T20:11:00.776Z,16.42
2022-10-26T20:15:14.535Z,19.90
2022-10-26T20:19:28.210Z,19.60
2022-10-26T20:23:42.485Z,19.27
2022-10-26T20:27:57.686Z,19.95
2022-10-26T20:32:15.185Z,21.83
2022-10-26T20:36:29.287Z,19.88
2022-10-26T20:40:43.601Z,23.75
2022-10-26T20:45:05.127Z,17.15
2022-10-26T20:49:19.364Z,18.83
2022-10-26T20:53:36.234Z,12.25
2022-10-26T20:57:56.578Z,14.95
2022-10-26T21:02:12.182Z,14.13
2022-10-26T21:06:27.251Z,11.48
2022-10-26T21:10:41.153Z,18.08
2022-10-26T21:14:54.760Z,15.93
2022-10-26T21:19:10.337Z,15.30
2022-10-26T21:23:24.037Z,14.10
2022-10-26T21:27:37.922Z,14.77
2022-10-26T21:31:51.760Z,13.33
2022-10-26T21:36:08.511Z,15.52
2022-10-26T21:40:22.274Z,13.40
2022-10-26T21:44:43.050Z,16.77
2022-10-26T21:48:56.728Z,15.10
2022-10-26T21:53:11.765Z,17.65
2022-10-26T21:57:25.504Z,17.17
2022-10-26T22:01:39.337Z,13.25
2022-10-26T22:05:53.911Z,14.48
2022-10-26T22:10:11.162Z,13.65
2022-10-26T22:14:25.129Z,15.27
2022-10-26T22:18:40.452Z,15.70
2022-10-26T22:22:54.512Z,11.80
2022-10-26T22:27:10.328Z,15.27
2022-10-26T22:31:26.219Z,13.90
2022-10-26T22:35:39.916Z,14.40
2022-10-26T22:39:53.550Z,11.00
2022-10-26T22:44:08.765Z,11.93
2022-10-26T22:48:22.413Z,15.18
2022-10-26T22:52:36.365Z,11.07
2022-10-26T22:56:50.093Z,13.63
2022-10-26T23:01:06.755Z,14.85
2022-10-26T23:05:20.528Z,13.77
2022-10-26T23:09:34.159Z,13.80
2022-10-26T23:13:48.402Z,12.35
2022-10-26T23:18:03.411Z,14.77
2022-10-26T23:22:17.207Z,14.63
2022-10-26T23:26:31.719Z,18.67
2022-10-26T23:30:47.107Z,15.23
2022-10-26T23:35:02.584Z,15.07
2022-10-26T23:39:16.231Z,15.90
2022-10-26T23:43:29.879Z,12.23
2022-10-26T23:47:43.542Z,13.80
2022-10-26T23:51:58.548Z,16.70
2022-10-26T23:56:12.255Z,13.35
